createdAt,value
2023-08-30T00:01:05.888Z,0.73
2023-08-30T00:03:32.886Z,0.50
2023-08-30T00:06:07.167Z,0.70
2023-08-30T00:08:34.433Z,0.50
2023-08-30T00:11:01.190Z,0.70
2023-08-30T00:13:28.022Z,0.60
2023-08-30T00:15:54.653Z,0.90
2023-08-30T00:18:21.851Z,0.60
2023-08-30T00:20:48.804Z,0.75
2023-08-30T00:23:15.476Z,0.57
2023-08-30T00:25:42.182Z,0.50
2023-08-30T00:28:09.160Z,0.45
2023-08-30T00:30:36.111Z,0.50
2023-08-30T00:33:04.697Z,0.70
2023-08-30T00:35:31.524Z,0.50
2023-08-30T00:37:58.177Z,0.60
2023-08-30T00:40:28.438Z,0.50
2023-08-30T00:42:55.103Z,0.65
2023-08-30T00:45:21.753Z,0.40
2023-08-30T00:47:48.554Z,0.63
2023-08-30T00:50:16.203Z,0.65
2023-08-30T00:52:43.024Z,0.52
2023-08-30T00:55:11.444Z,0.50
2023-08-30T00:57:38.564Z,0.50
2023-08-30T01:00:07.760Z,1.10
2023-08-30T01:02:35.600Z,0.60
2023-08-30T01:05:03.970Z,0.70
2023-08-30T01:07:30.871Z,0.75
2023-08-30T01:09:59.215Z,1.10
2023-08-30T01:12:38.152Z,1.15
2023-08-30T01:15:22.089Z,0.98
2023-08-30T01:17:49.868Z,1.25
2023-08-30T01:20:20.308Z,1.38
2023-08-30T01:23:07.169Z,1.17
2023-08-30T01:25:42.790Z,1.05
2023-08-30T01:28:11.177Z,1.23
2023-08-30T01:30:43.727Z,1.55
2023-08-30T01:33:12.088Z,1.33
2023-08-30T01:35:41.993Z,1.33
2023-08-30T01:38:10.400Z,1.38
2023-08-30T01:40:43.634Z,1.50
2023-08-30T01:43:14.649Z,2.00
2023-08-30T01:45:45.280Z,1.73
2023-08-30T01:50:42.029Z,2.10
2023-08-30T01:53:11.402Z,2.05
2023-08-30T01:55:39.754Z,1.63
2023-08-30T01:58:08.221Z,2.20
2023-08-30T02:00:38.653Z,1.80
2023-08-30T02:03:13.952Z,2.13
2023-08-30T02:05:51.985Z,2.30
2023-08-30T02:08:21.876Z,2.30
2023-08-30T02:11:03.242Z,2.13
2023-08-30T02:13:31.840Z,2.10
2023-08-30T02:16:02.149Z,2.53
2023-08-30T02:18:29.767Z,2.20
2023-08-30T02:20:58.601Z,2.17
2023-08-30T02:23:26.347Z,2.40
2023-08-30T02:25:53.086Z,2.25
2023-08-30T02:28:20.998Z,2.20
2023-08-30T02:30:47.698Z,2.22
2023-08-30T02:33:16.381Z,2.38
2023-08-30T02:35:44.829Z,2.20
2023-08-30T02:38:11.746Z,2.20
2023-08-30T02:40:38.606Z,2.53
2023-08-30T02:43:05.222Z,2.38
2023-08-30T02:45:31.919Z,2.30
2023-08-30T02:47:58.970Z,2.25
2023-08-30T02:50:26.407Z,2.42
2023-08-30T02:52:53.889Z,2.58
2023-08-30T02:55:20.583Z,2.28
2023-08-30T02:57:47.508Z,2.47
2023-08-30T03:00:15.966Z,2.95
2023-08-30T03:02:45.152Z,2.55
2023-08-30T03:05:14.439Z,2.80
2023-08-30T03:07:41.163Z,2.50
2023-08-30T03:10:08.809Z,2.55
2023-08-30T03:12:37.222Z,2.65
2023-08-30T03:15:05.213Z,2.53
2023-08-30T03:17:33.275Z,2.60
2023-08-30T03:20:01.200Z,2.83
2023-08-30T03:22:29.307Z,2.90
2023-08-30T03:24:55.920Z,2.60
2023-08-30T03:27:23.239Z,2.80
2023-08-30T03:29:50.080Z,2.90
2023-08-30T03:32:18.888Z,2.67
2023-08-30T03:34:49.482Z,2.90
2023-08-30T03:37:16.791Z,2.58
2023-08-30T03:39:43.525Z,2.40
2023-08-30T03:42:10.442Z,2.65
2023-08-30T03:44:39.952Z,2.42
2023-08-30T03:47:08.052Z,2.50
2023-08-30T03:49:34.774Z,2.08
2023-08-30T03:52:01.703Z,2.40
2023-08-30T03:54:29.005Z,2.20
2023-08-30T03:56:55.628Z,2.42
2023-08-30T03:59:25.740Z,1.85
2023-08-30T04:01:54.145Z,2.17
2023-08-30T04:04:21.580Z,1.95
2023-08-30T04:06:49.090Z,2.10
2023-08-30T04:09:16.863Z,2.08
2023-08-30T04:11:44.938Z,2.30
2023-08-30T04:14:11.702Z,2.53
2023-08-30T04:16:38.415Z,2.00
2023-08-30T04:19:07.915Z,2.05
2023-08-30T04:21:34.652Z,2.42
2023-08-30T04:24:01.286Z,2.08
2023-08-30T04:26:28.159Z,2.30
2023-08-30T04:28:54.771Z,2.10
2023-08-30T04:31:21.507Z,2.10
2023-08-30T04:33:48.377Z,2.47
2023-08-30T04:36:15.020Z,2.38
2023-08-30T04:38:52.082Z,2.10
2023-08-30T04:41:27.509Z,1.92
2023-08-30T04:43:54.625Z,1.95
2023-08-30T04:46:21.736Z,2.28
2023-08-30T04:48:48.449Z,1.95
2023-08-30T04:51:15.370Z,1.98
2023-08-30T04:53:44.152Z,2.10
2023-08-30T04:56:15.230Z,1.73
2023-08-30T05:01:12.299Z,2.20
2023-08-30T05:03:40.128Z,2.10
2023-08-30T05:06:09.808Z,2.22
2023-08-30T05:08:36.531Z,2.05
2023-08-30T05:11:06.349Z,2.08
2023-08-30T05:13:35.784Z,2.10
2023-08-30T05:16:02.502Z,2.15
2023-08-30T05:18:29.175Z,1.98
2023-08-30T05:20:55.951Z,2.00
2023-08-30T05:23:22.672Z,2.15
2023-08-30T05:25:49.895Z,2.03
2023-08-30T05:28:17.490Z,2.08
2023-08-30T05:30:45.555Z,1.88
2023-08-30T05:33:24.195Z,1.80
2023-08-30T05:36:03.681Z,2.08
2023-08-30T05:38:49.971Z,1.88
2023-08-30T05:41:32.657Z,1.65
2023-08-30T05:43:59.433Z,2.05
2023-08-30T05:46:26.251Z,1.65
2023-08-30T05:48:53.111Z,1.80
2023-08-30T05:51:21.203Z,2.22
2023-08-30T05:53:47.914Z,2.10
2023-08-30T05:56:15.475Z,1.80
2023-08-30T05:58:42.121Z,1.88
2023-08-30T06:01:08.988Z,2.60
2023-08-30T06:03:36.218Z,1.98
2023-08-30T06:06:02.999Z,2.08
2023-08-30T06:08:29.770Z,1.92
2023-08-30T06:10:56.491Z,2.33
2023-08-30T06:13:23.606Z,1.90
2023-08-30T06:15:52.689Z,2.00
2023-08-30T06:18:20.402Z,1.40
2023-08-30T06:20:47.706Z,1.70
2023-08-30T06:23:15.681Z,1.63
2023-08-30T06:25:43.139Z,1.88
2023-08-30T06:28:10.145Z,1.80
2023-08-30T06:30:36.979Z,1.75
2023-08-30T06:33:03.913Z,1.70
2023-08-30T06:35:31.486Z,1.50
2023-08-30T06:37:58.232Z,1.40
2023-08-30T06:40:26.628Z,1.90
2023-08-30T06:42:53.264Z,1.60
2023-08-30T06:45:20.888Z,1.90
2023-08-30T06:47:50.245Z,1.70
2023-08-30T06:50:17.161Z,1.48
2023-08-30T06:52:43.868Z,2.08
2023-08-30T06:55:10.686Z,1.90
2023-08-30T06:57:37.272Z,2.03
2023-08-30T07:00:08.851Z,2.08
2023-08-30T07:02:38.720Z,2.67
2023-08-30T07:05:06.086Z,2.53
2023-08-30T07:07:33.116Z,3.08
2023-08-30T07:09:59.770Z,2.85
2023-08-30T07:12:26.854Z,2.80
2023-08-30T07:14:53.833Z,3.00
2023-08-30T07:17:20.789Z,3.42
2023-08-30T07:19:47.419Z,3.60
2023-08-30T07:22:14.051Z,3.13
2023-08-30T07:24:40.685Z,3.30
2023-08-30T07:27:09.558Z,3.38
2023-08-30T07:29:36.116Z,3.42
2023-08-30T07:32:03.616Z,3.22
2023-08-30T07:34:30.270Z,3.75
2023-08-30T07:36:57.186Z,3.30
2023-08-30T07:39:23.966Z,3.78
2023-08-30T07:41:50.609Z,3.38
2023-08-30T07:44:17.552Z,3.03
2023-08-30T07:46:44.180Z,3.25
2023-08-30T07:49:10.849Z,3.40
2023-08-30T07:51:37.548Z,3.38
2023-08-30T07:54:05.710Z,2.67
2023-08-30T07:56:32.672Z,2.97
2023-08-30T07:58:59.964Z,2.75
2023-08-30T08:01:26.757Z,2.72
2023-08-30T08:04:05.675Z,3.03
2023-08-30T08:06:34.852Z,3.08
2023-08-30T08:09:02.111Z,2.92
2023-08-30T08:11:28.743Z,2.63
2023-08-30T08:13:55.494Z,2.25
2023-08-30T08:16:22.343Z,2.65
2023-08-30T08:18:49.055Z,2.88
2023-08-30T08:21:15.743Z,2.67
2023-08-30T08:23:42.841Z,2.08
2023-08-30T08:26:09.609Z,2.17
2023-08-30T08:28:36.336Z,2.50
2023-08-30T08:31:03.008Z,2.40
2023-08-30T08:33:30.300Z,2.20
2023-08-30T08:35:57.021Z,1.75
2023-08-30T08:38:23.780Z,1.90
2023-08-30T08:40:54.499Z,1.90
2023-08-30T08:43:21.523Z,1.83
2023-08-30T08:45:49.268Z,1.70
2023-08-30T08:48:16.242Z,2.05
2023-08-30T08:50:44.132Z,2.03
2023-08-30T08:53:11.082Z,1.60
2023-08-30T08:55:38.835Z,1.55
2023-08-30T08:58:06.601Z,2.00
2023-08-30T09:00:33.855Z,1.80
2023-08-30T09:03:01.824Z,1.75
2023-08-30T09:05:30.448Z,1.60
2023-08-30T09:07:57.343Z,1.33
2023-08-30T09:10:24.232Z,1.85
2023-08-30T09:12:52.601Z,1.52
2023-08-30T09:15:22.247Z,1.70
2023-08-30T09:17:49.530Z,2.17
2023-08-30T09:20:16.344Z,1.60
2023-08-30T09:22:44.140Z,1.70
2023-08-30T09:25:12.828Z,1.70
2023-08-30T09:27:43.313Z,1.60
2023-08-30T09:30:11.980Z,1.42
2023-08-30T09:32:43.289Z,1.60
2023-08-30T09:35:10.902Z,1.38
2023-08-30T09:37:37.674Z,1.80
2023-08-30T09:40:05.045Z,1.70
2023-08-30T09:42:32.608Z,1.40
2023-08-30T09:44:59.511Z,1.27
2023-08-30T09:47:28.867Z,1.48
2023-08-30T09:49:57.449Z,1.05
2023-08-30T09:52:26.538Z,1.42
2023-08-30T09:54:53.625Z,1.17
2023-08-30T09:57:22.556Z,1.33
2023-08-30T09:59:49.700Z,0.93
2023-08-30T10:02:18.330Z,1.02
2023-08-30T10:04:46.070Z,0.65
2023-08-30T10:07:13.484Z,0.70
2023-08-30T10:09:51.669Z,1.10
2023-08-30T10:12:22.910Z,1.40
2023-08-30T10:14:49.535Z,1.17
2023-08-30T10:17:19.699Z,1.00
2023-08-30T10:19:47.076Z,0.95
2023-08-30T10:22:16.423Z,0.90
2023-08-30T10:25:02.931Z,1.10
2023-08-30T10:27:36.114Z,0.73
2023-08-30T10:30:05.287Z,1.00
2023-08-30T10:32:32.437Z,0.73
2023-08-30T10:35:02.415Z,0.80
2023-08-30T10:37:29.165Z,1.00
2023-08-30T10:40:01.545Z,0.82
2023-08-30T10:42:28.270Z,0.98
2023-08-30T10:47:39.752Z,0.90
2023-08-30T10:50:09.186Z,1.00
2023-08-30T10:52:36.364Z,1.00
2023-08-30T10:55:07.929Z,0.70
2023-08-30T10:57:34.703Z,0.70
2023-08-30T11:00:12.729Z,0.90
2023-08-30T11:02:39.591Z,1.00
2023-08-30T11:05:08.126Z,0.93
2023-08-30T11:07:35.033Z,0.88
2023-08-30T11:10:01.962Z,0.90
2023-08-30T11:12:30.974Z,0.90
2023-08-30T11:14:58.189Z,0.75
2023-08-30T11:17:25.062Z,0.75
2023-08-30T11:19:57.920Z,0.60
2023-08-30T11:22:25.168Z,0.77
2023-08-30T11:24:53.290Z,0.40
2023-08-30T11:27:20.117Z,0.80
2023-08-30T11:29:46.783Z,0.50
2023-08-30T11:32:13.427Z,0.40
2023-08-30T11:34:40.224Z,0.40
2023-08-30T11:37:06.936Z,0.40
2023-08-30T11:39:33.798Z,0.40
2023-08-30T11:42:09.396Z,0.30
2023-08-30T11:44:46.151Z,0.60
2023-08-30T11:47:19.716Z,0.40
2023-08-30T11:49:47.619Z,0.32
2023-08-30T11:52:15.004Z,0.40
2023-08-30T11:54:42.479Z,0.32
2023-08-30T11:57:10.177Z,0.28
2023-08-30T11:59:37.223Z,0.40
2023-08-30T12:02:05.070Z,0.20
2023-08-30T12:04:32.296Z,0.20
2023-08-30T12:07:00.479Z,0.43
2023-08-30T12:09:33.093Z,0.30
2023-08-30T12:12:12.735Z,0.40
2023-08-30T12:14:39.549Z,0.20
2023-08-30T12:17:06.746Z,0.30
2023-08-30T12:19:33.864Z,0.35
2023-08-30T12:22:09.847Z,0.20
2023-08-30T12:24:43.697Z,0.30
2023-08-30T12:27:10.689Z,0.28
2023-08-30T12:29:37.376Z,0.40
2023-08-30T12:32:04.499Z,0.20
2023-08-30T12:34:31.151Z,0.25
2023-08-30T12:36:57.912Z,0.20
2023-08-30T12:39:24.667Z,0.30
2023-08-30T12:41:51.517Z,0.25
2023-08-30T12:44:18.450Z,0.20
2023-08-30T12:46:45.480Z,0.43
2023-08-30T12:49:12.099Z,0.40
2023-08-30T12:51:39.046Z,0.30
2023-08-30T12:54:06.609Z,0.25
2023-08-30T12:56:33.236Z,0.50
2023-08-30T12:58:59.879Z,0.30
2023-08-30T13:01:26.693Z,0.30
2023-08-30T13:03:53.446Z,0.30
2023-08-30T13:06:20.087Z,0.40
2023-08-30T13:08:46.720Z,0.45
2023-08-30T13:11:13.560Z,0.32
2023-08-30T13:13:40.263Z,0.30
2023-08-30T13:16:06.862Z,0.35
2023-08-30T13:18:33.498Z,0.50
2023-08-30T13:21:00.277Z,0.50
2023-08-30T13:23:26.901Z,0.30
2023-08-30T13:25:53.563Z,0.45
2023-08-30T13:28:20.210Z,0.40
2023-08-30T13:30:47.562Z,0.38
2023-08-30T13:33:14.503Z,0.30
2023-08-30T13:35:41.717Z,0.30
2023-08-30T13:38:08.475Z,0.30
2023-08-30T13:40:35.269Z,0.50
2023-08-30T13:43:01.948Z,0.30
2023-08-30T13:45:28.627Z,0.30
2023-08-30T13:47:56.250Z,0.20
2023-08-30T13:50:23.123Z,0.30
2023-08-30T13:52:49.822Z,0.20
2023-08-30T13:55:16.729Z,0.20
2023-08-30T13:57:43.315Z,0.20
2023-08-30T14:00:11.122Z,0.28
2023-08-30T14:02:38.045Z,0.20
2023-08-30T14:05:05.454Z,0.20
2023-08-30T14:07:32.554Z,0.30
2023-08-30T14:09:59.427Z,0.32
2023-08-30T14:12:26.184Z,0.20
2023-08-30T14:14:54.263Z,0.20
2023-08-30T14:17:21.314Z,0.30
2023-08-30T14:19:48.958Z,0.20
2023-08-30T14:22:16.227Z,0.50
2023-08-30T14:24:57.786Z,0.30
2023-08-30T14:27:29.701Z,0.28
2023-08-30T14:29:56.479Z,0.20
2023-08-30T14:32:23.212Z,0.20
2023-08-30T14:34:49.875Z,0.20
2023-08-30T14:37:16.488Z,0.50
2023-08-30T14:39:43.203Z,0.30
2023-08-30T14:42:09.946Z,0.30
2023-08-30T14:44:36.656Z,0.50
2023-08-30T14:47:03.528Z,0.30
2023-08-30T14:49:32.386Z,0.40
2023-08-30T14:51:59.274Z,0.30
2023-08-30T14:54:25.910Z,0.40
2023-08-30T14:56:52.509Z,0.43
2023-08-30T14:59:19.204Z,0.30
2023-08-30T15:01:45.937Z,0.32
2023-08-30T15:04:12.826Z,0.43
2023-08-30T15:06:41.200Z,0.40
2023-08-30T15:09:10.950Z,0.35
2023-08-30T15:11:37.638Z,0.30
2023-08-30T15:14:04.705Z,0.40
2023-08-30T15:16:31.331Z,0.30
2023-08-30T15:18:58.025Z,0.45
2023-08-30T15:21:24.696Z,0.40
2023-08-30T15:23:51.379Z,0.40
2023-08-30T15:26:19.329Z,0.30
2023-08-30T15:28:47.499Z,0.50
2023-08-30T15:31:15.358Z,0.30
2023-08-30T15:33:43.116Z,0.80
2023-08-30T15:36:09.835Z,0.30
2023-08-30T15:38:37.610Z,0.50
2023-08-30T15:41:10.696Z,0.43
2023-08-30T15:43:42.224Z,0.57
2023-08-30T15:46:10.685Z,0.50
2023-08-30T15:48:38.593Z,0.50
2023-08-30T15:51:08.811Z,0.40
2023-08-30T15:53:39.878Z,0.40
2023-08-30T15:56:06.826Z,0.30
2023-08-30T15:58:33.571Z,0.40
2023-08-30T16:01:04.801Z,0.32
2023-08-30T16:03:31.906Z,0.40
2023-08-30T16:05:58.973Z,0.40
2023-08-30T16:08:28.864Z,0.50
2023-08-30T16:10:56.598Z,0.60
2023-08-30T16:13:23.573Z,0.50
2023-08-30T16:15:50.207Z,0.50
2023-08-30T16:18:17.127Z,0.60
2023-08-30T16:20:43.893Z,0.50
2023-08-30T16:23:11.230Z,0.50
2023-08-30T16:25:38.317Z,0.65
2023-08-30T16:28:05.112Z,0.70
2023-08-30T16:30:34.453Z,0.57
2023-08-30T16:33:01.150Z,0.47
2023-08-30T16:35:28.097Z,0.38
2023-08-30T16:37:54.806Z,0.40
2023-08-30T16:40:22.197Z,1.08
2023-08-30T16:42:50.369Z,0.77
2023-08-30T16:45:17.184Z,0.60
2023-08-30T16:48:03.933Z,0.50
2023-08-30T16:50:30.495Z,0.60
2023-08-30T16:52:57.183Z,0.60
2023-08-30T16:55:23.960Z,0.60
2023-08-30T16:57:50.653Z,0.60
2023-08-30T17:00:19.643Z,0.57
2023-08-30T17:02:49.959Z,0.70
2023-08-30T17:05:16.958Z,0.60
2023-08-30T17:07:43.928Z,0.80
2023-08-30T17:10:11.132Z,0.68
2023-08-30T17:12:38.271Z,0.50
2023-08-30T17:15:06.063Z,0.60
2023-08-30T17:17:32.840Z,0.50
2023-08-30T17:19:59.544Z,0.75
2023-08-30T17:22:26.225Z,0.70
2023-08-30T17:24:52.990Z,0.60
2023-08-30T17:27:19.720Z,0.70
2023-08-30T17:29:46.746Z,0.50
2023-08-30T17:32:13.509Z,0.60
2023-08-30T17:34:41.631Z,0.60
2023-08-30T17:37:08.961Z,0.80
2023-08-30T17:39:35.814Z,0.80
2023-08-30T17:42:02.808Z,0.80
2023-08-30T17:44:30.232Z,0.80
2023-08-30T17:46:56.931Z,0.75
2023-08-30T17:49:23.700Z,0.68
2023-08-30T17:51:50.573Z,0.65
2023-08-30T17:54:17.689Z,0.93
2023-08-30T17:56:44.394Z,0.75
2023-08-30T17:59:11.323Z,0.70
2023-08-30T18:01:38.237Z,0.70
2023-08-30T18:04:05.736Z,0.80
2023-08-30T18:06:32.565Z,0.70
2023-08-30T18:08:59.246Z,0.70
2023-08-30T18:11:25.971Z,0.77
2023-08-30T18:13:52.775Z,0.75
2023-08-30T18:16:21.796Z,0.60
2023-08-30T18:18:48.676Z,0.80
2023-08-30T18:21:15.460Z,1.00
2023-08-30T18:23:46.215Z,1.50
2023-08-30T18:26:13.202Z,1.05
2023-08-30T18:28:39.876Z,0.98
2023-08-30T18:31:06.597Z,0.88
2023-08-30T18:33:33.296Z,0.90
2023-08-30T18:35:59.893Z,1.17
2023-08-30T18:38:26.570Z,0.90
2023-08-30T18:41:04.743Z,0.90
2023-08-30T18:43:39.227Z,1.00
2023-08-30T18:46:05.815Z,1.17
2023-08-30T18:48:32.488Z,1.30
2023-08-30T18:50:59.162Z,1.75
2023-08-30T18:53:25.767Z,1.80
2023-08-30T18:55:54.024Z,2.20
2023-08-30T18:58:21.713Z,1.65
2023-08-30T19:00:49.653Z,1.63
2023-08-30T19:03:16.695Z,1.50
2023-08-30T19:05:43.562Z,1.42
2023-08-30T19:08:10.216Z,1.50
2023-08-30T19:10:37.756Z,1.73
2023-08-30T19:13:04.716Z,1.38
2023-08-30T19:15:31.425Z,1.30
2023-08-30T19:17:58.048Z,1.30
2023-08-30T19:20:24.888Z,1.40
2023-08-30T19:22:51.724Z,1.30
2023-08-30T19:25:19.225Z,1.58
2023-08-30T19:27:46.281Z,1.42
2023-08-30T19:30:13.358Z,1.58
2023-08-30T19:32:40.132Z,1.52
2023-08-30T19:35:07.738Z,1.73
2023-08-30T19:37:34.348Z,1.50
2023-08-30T19:40:01.732Z,1.20
2023-08-30T19:42:31.380Z,1.40
2023-08-30T19:45:04.549Z,1.25
2023-08-30T19:47:31.991Z,1.25
2023-08-30T19:49:58.943Z,1.42
2023-08-30T19:52:26.796Z,1.35
2023-08-30T19:54:55.630Z,1.10
2023-08-30T19:57:22.499Z,1.35
2023-08-30T19:59:49.141Z,1.60
2023-08-30T20:02:16.290Z,1.10
2023-08-30T20:04:43.017Z,1.33
2023-08-30T20:07:12.793Z,1.20
2023-08-30T20:09:39.819Z,1.20
2023-08-30T20:12:06.712Z,1.25
2023-08-30T20:14:33.390Z,1.13
2023-08-30T20:17:00.000Z,1.10
2023-08-30T20:19:26.647Z,1.30
2023-08-30T20:21:53.341Z,1.17
2023-08-30T20:24:20.284Z,2.63
2023-08-30T20:26:50.581Z,1.52
2023-08-30T20:29:17.272Z,1.60
2023-08-30T20:31:44.126Z,1.63
2023-08-30T20:34:13.217Z,1.75
2023-08-30T20:36:40.986Z,1.63
2023-08-30T20:39:08.543Z,1.33
2023-08-30T20:41:35.521Z,1.30
2023-08-30T20:44:02.585Z,1.15
2023-08-30T20:46:29.930Z,1.10
2023-08-30T20:48:57.761Z,1.23
2023-08-30T20:51:24.376Z,1.35
2023-08-30T20:53:51.284Z,1.38
2023-08-30T20:56:18.038Z,1.13
2023-08-30T20:58:47.874Z,1.38
2023-08-30T21:01:16.367Z,1.00
2023-08-30T21:03:44.139Z,1.15
2023-08-30T21:06:11.005Z,0.85
2023-08-30T21:08:38.400Z,1.00
2023-08-30T21:11:11.743Z,0.90
2023-08-30T21:13:38.463Z,1.00
2023-08-30T21:16:05.445Z,0.90
2023-08-30T21:18:32.159Z,1.02
2023-08-30T21:21:00.021Z,1.30
2023-08-30T21:23:27.412Z,1.08
2023-08-30T21:25:54.257Z,1.20
2023-08-30T21:28:21.028Z,1.23
2023-08-30T21:30:47.740Z,1.50
2023-08-30T21:33:16.742Z,1.17
2023-08-30T21:35:45.847Z,1.23
2023-08-30T21:38:14.759Z,1.05
2023-08-30T21:40:43.189Z,1.00
2023-08-30T21:43:11.839Z,1.20
2023-08-30T21:45:41.096Z,1.23
2023-08-30T21:48:09.212Z,1.25
2023-08-30T21:50:36.659Z,1.10
2023-08-30T21:53:03.808Z,1.10
2023-08-30T21:55:30.646Z,1.20
2023-08-30T21:57:57.339Z,1.10
2023-08-30T22:00:24.276Z,0.88
2023-08-30T22:02:51.650Z,1.40
2023-08-30T22:05:18.738Z,1.33
2023-08-30T22:07:46.977Z,0.98
2023-08-30T22:10:14.458Z,1.10
2023-08-30T22:12:42.268Z,1.15
2023-08-30T22:15:14.793Z,1.10
2023-08-30T22:17:42.902Z,1.20
2023-08-30T22:20:11.663Z,1.30
2023-08-30T22:22:41.549Z,1.30
2023-08-30T22:25:12.258Z,1.25
2023-08-30T22:30:08.200Z,1.80
2023-08-30T22:32:38.755Z,1.40
2023-08-30T22:35:07.706Z,1.30
2023-08-30T22:37:35.393Z,1.40
2023-08-30T22:40:07.200Z,1.40
2023-08-30T22:42:34.528Z,1.30
2023-08-30T22:45:03.808Z,1.30
2023-08-30T22:47:30.668Z,1.48
2023-08-30T22:49:57.417Z,1.40
2023-08-30T22:52:24.227Z,2.05
2023-08-30T22:54:51.371Z,1.77
2023-08-30T22:57:18.143Z,1.50
2023-08-30T22:59:44.809Z,1.70
2023-08-30T23:02:11.763Z,1.45
2023-08-30T23:04:38.847Z,1.48
2023-08-30T23:07:05.508Z,1.80
2023-08-30T23:09:33.554Z,1.70
2023-08-30T23:12:00.308Z,1.75
2023-08-30T23:14:27.096Z,2.10
2023-08-30T23:16:53.855Z,1.60
2023-08-30T23:19:20.470Z,1.98
2023-08-30T23:21:47.069Z,1.80
2023-08-30T23:24:14.733Z,1.95
2023-08-30T23:26:41.628Z,1.80
2023-08-30T23:29:08.526Z,1.80
2023-08-30T23:31:35.338Z,2.25
2023-08-30T23:34:02.081Z,1.70
2023-08-30T23:36:30.191Z,2.20
2023-08-30T23:38:56.940Z,1.98
2023-08-30T23:41:23.776Z,2.00
2023-08-30T23:43:50.624Z,2.10
2023-08-30T23:46:17.929Z,2.08
2023-08-30T23:48:44.637Z,1.90
2023-08-30T23:51:11.382Z,1.85
2023-08-30T23:53:38.146Z,2.03
2023-08-30T23:56:04.875Z,2.00
2023-08-30T23:58:31.605Z,1.92
